createdAt,value
2023-03-27T00:00:01.634Z,4.73
2023-03-27T00:02:33.021Z,4.39
2023-03-27T00:05:02.557Z,4.22
2023-03-27T00:07:31.448Z,4.55
2023-03-27T00:10:00.035Z,4.67
2023-03-27T00:12:28.518Z,4.63
2023-03-27T00:14:57.192Z,4.42
2023-03-27T00:17:25.777Z,4.20
2023-03-27T00:19:54.258Z,4.30
2023-03-27T00:22:24.918Z,4.81
2023-03-27T00:24:54.303Z,4.93
2023-03-27T00:27:22.871Z,4.79
2023-03-27T00:29:51.250Z,4.58
2023-03-27T00:32:20.664Z,4.30
2023-03-27T00:34:49.106Z,4.04
2023-03-27T00:37:18.340Z,4.52
2023-03-27T00:39:50.189Z,4.85
2023-03-27T00:42:23.022Z,4.81
2023-03-27T00:44:53.027Z,4.53
2023-03-27T00:47:33.262Z,4.31
2023-03-27T00:50:05.385Z,4.08
2023-03-27T00:52:33.899Z,4.30
2023-03-27T00:55:05.246Z,4.74
2023-03-27T00:57:33.933Z,4.75
2023-03-27T01:00:13.781Z,4.68
2023-03-27T01:02:45.331Z,4.41
2023-03-27T01:05:14.159Z,4.23
2023-03-27T01:07:43.112Z,4.48
2023-03-27T01:10:38.960Z,4.76
2023-03-27T01:13:38.141Z,4.63
2023-03-27T01:16:38.760Z,4.18
2023-03-27T01:19:32.140Z,3.94
2023-03-27T01:22:39.526Z,3.93
2023-03-27T01:25:37.285Z,4.57
2023-03-27T01:28:15.393Z,4.57
2023-03-27T01:31:19.899Z,4.32
2023-03-27T01:34:04.066Z,4.02
2023-03-27T01:36:47.812Z,3.78
2023-03-27T01:39:36.050Z,3.59
2023-03-27T01:42:06.441Z,4.19
2023-03-27T01:44:45.388Z,4.64
2023-03-27T01:47:42.185Z,4.60
2023-03-27T01:50:30.020Z,4.30
2023-03-27T01:53:21.569Z,3.97
2023-03-27T01:55:52.510Z,3.70
2023-03-27T01:58:23.293Z,3.46
2023-03-27T02:00:53.808Z,3.83
2023-03-27T02:03:37.988Z,4.35
2023-03-27T02:06:24.920Z,4.35
2023-03-27T02:09:49.585Z,4.03
2023-03-27T02:12:33.858Z,3.53
2023-03-27T02:15:24.548Z,3.16
2023-03-27T02:18:05.531Z,2.88
2023-03-27T02:20:35.234Z,3.40
2023-03-27T02:23:05.325Z,3.71
2023-03-27T02:25:40.989Z,3.65
2023-03-27T02:28:35.255Z,3.47
2023-03-27T02:31:33.276Z,3.22
2023-03-27T02:34:10.714Z,2.88
2023-03-27T02:36:43.703Z,2.75
2023-03-27T02:39:17.709Z,3.34
2023-03-27T02:42:06.983Z,3.58
2023-03-27T02:44:51.710Z,3.39
2023-03-27T02:47:37.774Z,3.08
2023-03-27T02:50:10.855Z,2.76
2023-03-27T02:52:43.485Z,2.69
2023-03-27T02:55:26.835Z,3.22
2023-03-27T02:57:59.803Z,3.43
2023-03-27T03:00:40.056Z,3.32
2023-03-27T03:03:27.952Z,3.08
2023-03-27T03:06:11.269Z,2.94
2023-03-27T03:08:41.356Z,3.47
2023-03-27T03:11:13.529Z,3.75
2023-03-27T03:13:50.008Z,3.60
2023-03-27T03:16:20.224Z,3.33
2023-03-27T03:18:49.450Z,3.01
2023-03-27T03:21:17.715Z,2.69
2023-03-27T03:23:58.273Z,2.44
2023-03-27T03:26:32.481Z,2.90
2023-03-27T03:29:02.636Z,3.29
2023-03-27T03:31:43.685Z,3.26
2023-03-27T03:34:14.579Z,3.04
2023-03-27T03:36:45.090Z,2.76
2023-03-27T03:39:17.625Z,2.65
2023-03-27T03:41:48.890Z,3.16
2023-03-27T03:44:17.738Z,3.41
2023-03-27T03:46:46.833Z,3.36
2023-03-27T03:49:18.593Z,3.15
2023-03-27T03:51:47.074Z,2.90
2023-03-27T03:54:34.195Z,3.30
2023-03-27T03:57:03.520Z,3.69
2023-03-27T03:59:33.205Z,3.62
2023-03-27T04:02:35.219Z,3.37
2023-03-27T04:05:12.780Z,3.08
2023-03-27T04:07:42.594Z,3.06
2023-03-27T04:10:41.870Z,3.75
2023-03-27T04:13:19.914Z,3.98
2023-03-27T04:15:55.799Z,3.87
2023-03-27T04:18:40.437Z,3.64
2023-03-27T04:21:18.024Z,3.38
2023-03-27T04:23:48.416Z,3.18
2023-03-27T04:26:26.693Z,3.63
2023-03-27T04:29:32.174Z,4.25
2023-03-27T04:32:00.983Z,4.35
2023-03-27T04:34:42.147Z,4.26
2023-03-27T04:37:23.928Z,4.16
2023-03-27T04:40:25.696Z,4.08
2023-03-27T04:42:56.117Z,4.04
2023-03-27T04:45:25.936Z,4.69
2023-03-27T04:47:56.626Z,5.45
2023-03-27T04:50:26.074Z,5.70
2023-03-27T04:52:58.987Z,5.68
2023-03-27T04:55:28.784Z,5.50
2023-03-27T04:57:58.066Z,5.23
2023-03-27T05:00:26.577Z,4.98
2023-03-27T05:03:23.989Z,4.71
2023-03-27T05:05:59.563Z,4.53
2023-03-27T05:08:28.045Z,5.08
2023-03-27T05:10:57.716Z,5.65
2023-03-27T05:13:29.125Z,5.74
2023-03-27T05:15:59.614Z,5.64
2023-03-27T05:18:30.862Z,5.49
2023-03-27T05:21:06.316Z,5.26
2023-03-27T05:23:34.994Z,5.12
2023-03-27T05:26:04.001Z,5.22
2023-03-27T05:28:58.894Z,6.07
2023-03-27T05:31:28.564Z,6.39
2023-03-27T05:34:19.401Z,6.45
2023-03-27T05:36:48.135Z,6.08
2023-03-27T05:39:17.098Z,5.86
2023-03-27T05:41:48.293Z,5.79
2023-03-27T05:44:23.978Z,5.72
2023-03-27T05:46:57.998Z,5.91
2023-03-27T05:49:31.799Z,6.45
2023-03-27T05:52:09.632Z,6.76
2023-03-27T05:54:38.207Z,6.66
2023-03-27T05:57:12.010Z,6.44
2023-03-27T05:59:44.963Z,6.12
2023-03-27T06:02:21.087Z,5.79
2023-03-27T06:04:59.509Z,5.90
2023-03-27T06:07:35.397Z,6.38
2023-03-27T06:10:13.772Z,6.40
2023-03-27T06:13:17.619Z,6.46
2023-03-27T06:15:55.000Z,6.39
2023-03-27T06:18:39.056Z,6.27
2023-03-27T06:21:09.228Z,6.20
2023-03-27T06:23:38.172Z,6.40
2023-03-27T06:26:12.075Z,7.09
2023-03-27T06:28:42.691Z,7.30
2023-03-27T06:31:12.262Z,7.29
2023-03-27T06:33:53.207Z,7.27
2023-03-27T06:36:33.677Z,7.32
2023-03-27T06:39:08.585Z,7.38
2023-03-27T06:41:37.063Z,7.40
2023-03-27T06:44:19.278Z,7.80
2023-03-27T06:47:01.728Z,8.19
2023-03-27T06:49:57.108Z,8.19
2023-03-27T06:52:27.455Z,8.18
2023-03-27T06:55:00.502Z,8.20
2023-03-27T06:57:30.149Z,8.19
2023-03-27T07:00:02.464Z,8.40
2023-03-27T07:02:58.908Z,8.50
2023-03-27T07:05:46.271Z,8.58
2023-03-27T07:10:59.716Z,8.86
2023-03-27T07:13:41.257Z,8.90
2023-03-27T07:16:13.301Z,9.01
2023-03-27T07:18:42.726Z,9.26
2023-03-27T07:21:13.045Z,9.77
2023-03-27T07:23:42.556Z,10.42
2023-03-27T07:26:13.716Z,10.64
2023-03-27T07:29:04.106Z,10.60
2023-03-27T07:31:51.593Z,10.65
2023-03-27T07:34:29.826Z,10.55
2023-03-27T07:37:23.014Z,10.59
2023-03-27T07:40:13.981Z,10.75
2023-03-27T07:42:48.756Z,11.05
2023-03-27T07:45:22.333Z,11.02
2023-03-27T07:47:52.892Z,11.20
2023-03-27T07:50:23.940Z,11.32
2023-03-27T07:52:54.224Z,11.61
2023-03-27T07:55:23.426Z,11.87
2023-03-27T07:58:03.299Z,12.05
2023-03-27T08:00:36.034Z,12.12
2023-03-27T08:03:15.364Z,12.21
2023-03-27T08:05:56.898Z,12.52
2023-03-27T08:08:27.391Z,12.81
2023-03-27T08:11:04.917Z,12.95
2023-03-27T08:13:41.268Z,13.31
2023-03-27T08:16:17.689Z,13.54
2023-03-27T08:18:47.327Z,13.59
2023-03-27T08:21:16.052Z,13.48
2023-03-27T08:23:46.272Z,13.78
2023-03-27T08:26:33.676Z,14.12
2023-03-27T08:29:09.116Z,14.15
2023-03-27T08:31:39.753Z,14.04
2023-03-27T08:34:09.381Z,13.98
2023-03-27T08:36:43.164Z,14.10
2023-03-27T08:39:11.840Z,14.16
2023-03-27T08:42:17.837Z,14.41
2023-03-27T08:44:55.188Z,14.74
2023-03-27T08:47:41.681Z,14.94
2023-03-27T08:50:28.226Z,15.08
2023-03-27T08:53:14.794Z,15.25
2023-03-27T08:55:43.702Z,14.82
2023-03-27T08:58:21.528Z,14.61
2023-03-27T09:01:03.601Z,14.79
2023-03-27T09:04:32.503Z,14.57
2023-03-27T09:07:01.598Z,14.71
2023-03-27T09:09:59.460Z,15.04
2023-03-27T09:12:57.131Z,15.35
2023-03-27T09:15:29.914Z,15.17
2023-03-27T09:18:01.672Z,15.10
2023-03-27T09:20:35.084Z,15.13
2023-03-27T09:23:22.095Z,15.50
2023-03-27T09:26:24.253Z,15.74
2023-03-27T09:29:20.186Z,16.28
2023-03-27T09:31:56.544Z,16.43
2023-03-27T09:34:27.221Z,15.68
2023-03-27T09:36:59.546Z,15.94
2023-03-27T09:39:32.189Z,16.08
2023-03-27T09:42:32.252Z,15.89
2023-03-27T09:45:04.850Z,16.29
2023-03-27T09:47:38.543Z,16.70
2023-03-27T09:50:31.348Z,16.77
2023-03-27T09:53:12.861Z,16.50
2023-03-27T09:55:53.124Z,16.12
2023-03-27T09:58:26.313Z,15.34
2023-03-27T10:01:16.945Z,15.32
2023-03-27T10:03:53.110Z,15.34
2023-03-27T10:06:49.342Z,15.53
2023-03-27T10:09:30.214Z,15.75
2023-03-27T10:12:08.319Z,15.90
2023-03-27T10:14:42.742Z,16.28
2023-03-27T10:17:31.584Z,16.44
2023-03-27T10:20:19.113Z,16.46
2023-03-27T10:22:54.660Z,16.18
2023-03-27T10:25:31.314Z,16.17
2023-03-27T10:28:45.437Z,15.74
2023-03-27T10:31:31.504Z,15.66
2023-03-27T10:34:40.280Z,15.56
2023-03-27T10:37:34.714Z,15.30
2023-03-27T10:40:37.157Z,15.51
2023-03-27T10:43:19.580Z,15.33
2023-03-27T10:46:06.461Z,14.92
2023-03-27T10:48:45.499Z,15.13
2023-03-27T10:51:46.040Z,15.71
2023-03-27T10:54:32.006Z,15.83
2023-03-27T10:57:11.518Z,15.58
2023-03-27T10:59:44.462Z,15.10
2023-03-27T11:02:33.582Z,14.70
2023-03-27T11:05:03.295Z,14.86
2023-03-27T11:07:42.006Z,15.05
2023-03-27T11:10:18.588Z,15.25
2023-03-27T11:12:59.843Z,15.05
2023-03-27T11:15:39.796Z,15.02
2023-03-27T11:18:25.842Z,14.88
2023-03-27T11:21:24.218Z,14.82
2023-03-27T11:24:00.344Z,14.18
2023-03-27T11:27:16.578Z,14.38
2023-03-27T11:30:23.402Z,14.40
2023-03-27T11:33:33.202Z,14.51
2023-03-27T11:36:15.819Z,14.54
2023-03-27T11:38:54.335Z,14.63
2023-03-27T11:41:23.132Z,14.63
2023-03-27T11:43:52.636Z,14.54
2023-03-27T11:47:19.898Z,14.68
2023-03-27T11:50:03.632Z,14.93
2023-03-27T11:52:42.942Z,15.07
2023-03-27T11:55:42.299Z,14.87
2023-03-27T11:58:16.183Z,14.52
2023-03-27T12:00:56.804Z,14.36
2023-03-27T12:03:33.755Z,14.25
2023-03-27T12:06:21.350Z,14.29
2023-03-27T12:09:03.248Z,14.39
2023-03-27T12:11:42.456Z,14.25
2023-03-27T12:14:40.577Z,14.15
2023-03-27T12:17:39.807Z,14.12
2023-03-27T12:20:20.548Z,13.92
2023-03-27T12:22:58.947Z,14.06
2023-03-27T12:26:33.809Z,14.24
2023-03-27T12:29:48.846Z,14.24
2023-03-27T12:32:44.034Z,14.25
2023-03-27T12:35:21.220Z,14.21
2023-03-27T12:37:58.774Z,14.19
2023-03-27T12:40:30.304Z,14.24
2023-03-27T12:43:21.016Z,14.16
2023-03-27T12:46:13.314Z,14.10
2023-03-27T12:48:51.438Z,14.12
2023-03-27T12:51:20.978Z,14.10
2023-03-27T12:53:56.187Z,14.03
2023-03-27T12:56:29.805Z,13.97
2023-03-27T12:58:59.281Z,13.79
2023-03-27T13:01:49.103Z,13.69
2023-03-27T13:04:40.678Z,13.79
2023-03-27T13:07:27.414Z,13.82
2023-03-27T13:10:20.966Z,13.82
2023-03-27T13:13:24.879Z,13.83
2023-03-27T13:16:15.171Z,13.82
2023-03-27T13:19:03.110Z,13.74
2023-03-27T13:21:39.784Z,13.62
2023-03-27T13:24:10.098Z,13.48
2023-03-27T13:26:52.788Z,13.19
2023-03-27T13:37:10.002Z,12.79
2023-03-27T13:40:08.020Z,12.68
2023-03-27T13:42:39.927Z,12.61
2023-03-27T13:45:17.935Z,12.59
2023-03-27T13:48:05.653Z,12.55
2023-03-27T13:50:54.269Z,12.55
2023-03-27T13:53:45.021Z,12.57
2023-03-27T13:56:45.619Z,12.60
2023-03-27T13:59:57.372Z,12.62
2023-03-27T14:02:46.355Z,12.64
2023-03-27T14:05:55.309Z,12.64
2023-03-27T14:08:56.450Z,12.52
2023-03-27T14:11:40.755Z,12.39
2023-03-27T14:14:23.574Z,12.34
2023-03-27T14:16:56.132Z,12.31
2023-03-27T14:19:57.177Z,12.32
2023-03-27T14:22:28.319Z,12.30
2023-03-27T14:25:04.934Z,12.24
2023-03-27T14:27:45.734Z,12.17
2023-03-27T14:30:28.170Z,12.11
2023-03-27T14:33:10.263Z,12.10
2023-03-27T14:35:41.517Z,12.10
2023-03-27T14:38:34.916Z,12.11
2023-03-27T14:41:05.732Z,12.10
2023-03-27T14:43:48.863Z,12.05
2023-03-27T14:46:17.279Z,12.01
2023-03-27T14:48:46.205Z,11.99
2023-03-27T14:51:19.615Z,11.95
2023-03-27T14:53:49.753Z,11.87
2023-03-27T14:56:42.702Z,11.85
2023-03-27T14:59:40.962Z,11.76
2023-03-27T15:02:32.835Z,11.65
2023-03-27T15:05:13.435Z,11.50
2023-03-27T15:07:45.316Z,11.45
2023-03-27T15:10:40.497Z,11.42
2023-03-27T15:13:26.726Z,11.40
2023-03-27T15:15:58.206Z,11.37
2023-03-27T15:18:59.017Z,11.32
2023-03-27T15:21:44.507Z,11.27
2023-03-27T15:24:38.727Z,11.19
2023-03-27T15:27:07.919Z,11.08
2023-03-27T15:29:57.890Z,10.99
2023-03-27T15:32:32.421Z,10.84
2023-03-27T15:35:03.587Z,10.69
2023-03-27T15:37:32.103Z,10.58
2023-03-27T15:40:31.432Z,10.56
2023-03-27T15:43:24.650Z,10.51
2023-03-27T15:46:04.590Z,10.50
2023-03-27T15:48:40.988Z,10.45
2023-03-27T15:51:09.583Z,10.42
2023-03-27T15:53:45.392Z,10.39
2023-03-27T15:56:14.012Z,10.37
2023-03-27T15:58:47.408Z,10.33
2023-03-27T16:01:19.565Z,10.30
2023-03-27T16:03:50.788Z,10.25
2023-03-27T16:06:30.978Z,10.19
2023-03-27T16:08:59.368Z,10.14
2023-03-27T16:11:39.765Z,10.08
2023-03-27T16:14:40.956Z,9.99
2023-03-27T16:17:20.637Z,9.88
2023-03-27T16:19:54.825Z,9.82
2023-03-27T16:22:34.561Z,9.73
2023-03-27T16:25:05.285Z,9.64
2023-03-27T16:27:39.814Z,9.54
2023-03-27T16:30:09.853Z,9.44
2023-03-27T16:32:38.740Z,9.35
2023-03-27T16:35:08.372Z,9.22
2023-03-27T16:37:37.122Z,9.11
2023-03-27T16:40:07.036Z,8.99
2023-03-27T16:42:35.760Z,8.90
2023-03-27T16:45:08.718Z,8.88
2023-03-27T16:47:37.219Z,9.41
2023-03-27T16:50:11.649Z,9.80
2023-03-27T16:52:41.441Z,9.79
2023-03-27T16:55:11.745Z,9.60
2023-03-27T16:57:42.037Z,9.44
2023-03-27T17:00:11.825Z,9.22
2023-03-27T17:02:43.025Z,8.99
2023-03-27T17:05:11.489Z,8.79
2023-03-27T17:07:41.980Z,8.64
2023-03-27T17:10:18.533Z,9.12
2023-03-27T17:12:47.492Z,9.56
2023-03-27T17:15:16.943Z,9.55
2023-03-27T17:17:50.348Z,9.34
2023-03-27T17:20:19.795Z,9.07
2023-03-27T17:22:48.069Z,8.82
2023-03-27T17:25:17.915Z,8.59
2023-03-27T17:27:46.467Z,8.43
2023-03-27T17:30:21.470Z,8.81
2023-03-27T17:32:55.930Z,9.11
2023-03-27T17:35:26.920Z,9.00
2023-03-27T17:37:55.956Z,8.76
2023-03-27T17:42:04.381Z,8.39
2023-03-27T17:44:41.879Z,8.20
2023-03-27T17:47:10.368Z,8.62
2023-03-27T17:49:38.942Z,8.89
2023-03-27T17:52:12.232Z,8.81
2023-03-27T17:54:43.070Z,8.57
2023-03-27T17:57:12.832Z,8.32
2023-03-27T17:59:41.469Z,8.13
2023-03-27T18:02:17.661Z,8.53
2023-03-27T18:04:52.287Z,8.86
2023-03-27T18:07:23.910Z,8.80
2023-03-27T18:09:52.918Z,8.58
2023-03-27T18:12:22.328Z,8.32
2023-03-27T18:14:50.986Z,8.12
2023-03-27T18:17:23.775Z,8.53
2023-03-27T18:19:52.348Z,8.88
2023-03-27T18:22:21.139Z,8.86
2023-03-27T18:24:49.718Z,8.68
2023-03-27T18:27:18.534Z,8.43
2023-03-27T18:29:49.560Z,8.17
2023-03-27T18:32:17.929Z,8.50
2023-03-27T18:34:46.731Z,8.83
2023-03-27T18:37:16.738Z,8.74
2023-03-27T18:39:45.008Z,8.52
2023-03-27T18:42:13.753Z,8.27
2023-03-27T18:44:42.990Z,8.08
2023-03-27T18:47:11.824Z,8.45
2023-03-27T18:49:41.493Z,8.80
2023-03-27T18:52:11.812Z,8.78
2023-03-27T18:54:40.131Z,8.50
2023-03-27T18:57:08.997Z,8.25
2023-03-27T19:07:20.455Z,8.54
2023-03-27T19:09:49.102Z,8.27
2023-03-27T19:12:17.725Z,8.05
2023-03-27T19:15:17.342Z,8.40
2023-03-27T19:18:28.499Z,8.62
2023-03-27T19:21:21.874Z,8.43
2023-03-27T19:24:03.671Z,8.15
2023-03-27T19:26:40.096Z,8.14
2023-03-27T19:29:08.477Z,8.52
2023-03-27T19:31:37.379Z,8.53
2023-03-27T19:34:08.017Z,8.33
2023-03-27T19:36:40.818Z,8.06
2023-03-27T19:39:09.689Z,8.06
2023-03-27T19:41:38.070Z,8.48
2023-03-27T19:44:06.950Z,8.55
2023-03-27T19:46:35.824Z,8.34
2023-03-27T19:49:05.682Z,8.10
2023-03-27T19:51:53.004Z,8.16
2023-03-27T19:54:24.015Z,8.55
2023-03-27T19:56:52.749Z,8.56
2023-03-27T19:59:30.437Z,8.39
2023-03-27T20:02:00.602Z,8.13
2023-03-27T20:04:28.989Z,8.19
2023-03-27T20:06:59.318Z,8.58
2023-03-27T20:09:27.691Z,8.63
2023-03-27T20:11:57.090Z,8.47
2023-03-27T20:14:28.244Z,8.26
2023-03-27T20:16:57.057Z,8.09
2023-03-27T20:19:27.962Z,8.54
2023-03-27T20:22:00.447Z,8.78
2023-03-27T20:24:29.679Z,8.67
2023-03-27T20:27:02.332Z,8.45
2023-03-27T20:29:31.206Z,8.20
2023-03-27T20:31:59.487Z,8.10
2023-03-27T20:34:28.177Z,8.62
2023-03-27T20:36:59.196Z,8.87
2023-03-27T20:39:54.445Z,8.76
2023-03-27T20:42:23.920Z,8.53
2023-03-27T20:44:58.353Z,8.28
2023-03-27T20:47:27.622Z,8.09
2023-03-27T20:49:59.113Z,8.47
2023-03-27T20:52:27.573Z,8.76
2023-03-27T20:54:57.222Z,8.71
2023-03-27T20:57:25.869Z,8.49
2023-03-27T20:59:54.650Z,8.23
2023-03-27T21:02:23.805Z,8.11
2023-03-27T21:04:53.152Z,8.64
2023-03-27T21:07:21.632Z,8.86
2023-03-27T21:09:55.812Z,8.82
2023-03-27T21:12:25.157Z,8.62
2023-03-27T21:14:53.838Z,8.38
2023-03-27T21:17:22.423Z,8.16
2023-03-27T21:19:51.115Z,8.60
2023-03-27T21:22:24.105Z,9.03
2023-03-27T21:24:52.531Z,9.03
2023-03-27T21:27:21.462Z,8.85
2023-03-27T21:29:56.618Z,8.58
2023-03-27T21:32:26.559Z,8.27
2023-03-27T21:34:54.908Z,7.96
2023-03-27T21:37:23.371Z,8.26
2023-03-27T21:39:51.859Z,8.78
2023-03-27T21:42:21.963Z,8.88
2023-03-27T21:44:55.701Z,8.70
2023-03-27T21:47:34.421Z,8.38
2023-03-27T21:50:10.664Z,8.24
2023-03-27T21:52:38.890Z,8.63
2023-03-27T21:55:11.512Z,8.87
2023-03-27T21:57:41.132Z,8.80
2023-03-27T22:00:10.506Z,8.52
2023-03-27T22:02:43.057Z,8.23
2023-03-27T22:05:11.790Z,8.33
2023-03-27T22:07:46.842Z,8.72
2023-03-27T22:10:15.994Z,8.75
2023-03-27T22:12:44.907Z,8.54
2023-03-27T22:15:14.532Z,8.28
2023-03-27T22:17:44.090Z,8.38
2023-03-27T22:20:12.812Z,8.73
2023-03-27T22:22:49.684Z,8.71
2023-03-27T22:25:19.703Z,8.53
2023-03-27T22:27:48.297Z,8.19
2023-03-27T22:30:17.904Z,8.48
2023-03-27T22:32:46.852Z,8.88
2023-03-27T22:35:17.457Z,8.80
2023-03-27T22:37:46.610Z,8.57
2023-03-27T22:40:15.011Z,8.32
2023-03-27T22:42:44.299Z,8.54
2023-03-27T22:45:13.690Z,8.68
2023-03-27T22:47:44.287Z,8.55
2023-03-27T22:50:14.874Z,8.33
2023-03-27T22:52:43.532Z,8.57
2023-03-27T22:55:13.246Z,8.78
2023-03-27T22:57:41.730Z,8.67
2023-03-27T23:00:16.976Z,8.43
2023-03-27T23:02:59.005Z,8.39
2023-03-27T23:05:27.533Z,8.80
2023-03-27T23:07:57.967Z,8.87
2023-03-27T23:10:26.864Z,8.68
2023-03-27T23:12:55.145Z,8.42
2023-03-27T23:15:30.224Z,8.59
2023-03-27T23:17:59.643Z,8.80
2023-03-27T23:20:31.357Z,8.74
2023-03-27T23:23:01.089Z,8.50
2023-03-27T23:25:29.846Z,8.48
2023-03-27T23:27:59.031Z,8.77
2023-03-27T23:30:27.648Z,8.80
2023-03-27T23:32:56.625Z,8.62
2023-03-27T23:35:25.237Z,8.45
2023-03-27T23:38:31.657Z,8.80
2023-03-27T23:41:01.387Z,8.89
2023-03-27T23:43:30.564Z,8.53
2023-03-27T23:46:05.518Z,8.16
2023-03-27T23:48:34.106Z,8.33
2023-03-27T23:51:02.779Z,8.52
2023-03-27T23:53:33.411Z,8.27
2023-03-27T23:56:02.546Z,8.02
2023-03-27T23:58:32.897Z,8.00
